Terminal Aerodrome Forecast
Issued by NWS

Home | Current Version | Previous Version | Text Only | Print | Product List | Glossary On
Versions: 1 2 3 4 5 6 7 8 9 10 11
000
FTUS42 KILM 290500
TAFCRE
TAF
KCRE 290527Z 2906/3006 00000KT 2SM BR FEW045
      TEMPO 2907/2909 1SM BR BKN004
     FM290900 VRB02KT 2SM BR BKN004
     FM291300 27005KT 5SM -DZ BR OVC004
     FM291800 31005KT 4SM -RA BR BKN006 OVC012
     FM300000 02006KT 3SM -RA BR OVC003=

USA.gov is the U.S. government's official web portal to all federal, state and local government web resources and services.